sensor_id;sensor_type;location;lat;lon;timestamp;P1;durP1;ratioP1;P2;durP2;ratioP2
77722;SDS011;67811;42.656;23.394;2023-12-20T00:01:28;7.57;;;4.28;;
77722;SDS011;67811;42.656;23.394;2023-12-20T00:05:33;10.00;;;5.77;;
77722;SDS011;67811;42.656;23.394;2023-12-20T00:09:38;12.80;;;5.13;;
77722;SDS011;67811;42.656;23.394;2023-12-20T00:13:44;12.73;;;6.23;;
77722;SDS011;67811;42.656;23.394;2023-12-20T00:17:49;10.30;;;6.10;;
77722;SDS011;67811;42.656;23.394;2023-12-20T00:21:54;11.87;;;5.93;;
77722;SDS011;67811;42.656;23.394;2023-12-20T00:26:00;15.07;;;7.27;;
77722;SDS011;67811;42.656;23.394;2023-12-20T00:30:05;13.30;;;6.20;;
77722;SDS011;67811;42.656;23.394;2023-12-20T00:34:11;9.90;;;4.65;;
77722;SDS011;67811;42.656;23.394;2023-12-20T00:38:16;7.53;;;4.57;;
77722;SDS011;67811;42.656;23.394;2023-12-20T00:42:21;9.93;;;4.87;;
77722;SDS011;67811;42.656;23.394;2023-12-20T00:46:26;11.30;;;5.27;;
77722;SDS011;67811;42.656;23.394;2023-12-20T00:50:32;8.67;;;4.40;;
77722;SDS011;67811;42.656;23.394;2023-12-20T00:54:37;22.87;;;11.90;;
77722;SDS011;67811;42.656;23.394;2023-12-20T00:58:42;52.77;;;30.80;;
77722;SDS011;67811;42.656;23.394;2023-12-20T01:02:48;62.67;;;30.97;;
77722;SDS011;67811;42.656;23.394;2023-12-20T01:06:53;80.17;;;40.27;;
77722;SDS011;67811;42.656;23.394;2023-12-20T01:10:58;75.03;;;38.00;;
77722;SDS011;67811;42.656;23.394;2023-12-20T01:15:03;58.10;;;34.53;;
77722;SDS011;67811;42.656;23.394;2023-12-20T01:19:09;62.05;;;34.03;;
77722;SDS011;67811;42.656;23.394;2023-12-20T01:23:14;59.77;;;35.23;;
77722;SDS011;67811;42.656;23.394;2023-12-20T01:27:20;60.70;;;32.30;;
77722;SDS011;67811;42.656;23.394;2023-12-20T01:31:26;62.40;;;34.07;;
77722;SDS011;67811;42.656;23.394;2023-12-20T01:35:31;67.32;;;38.08;;
77722;SDS011;67811;42.656;23.394;2023-12-20T01:39:36;55.60;;;32.70;;
77722;SDS011;67811;42.656;23.394;2023-12-20T01:43:42;60.67;;;34.50;;
77722;SDS011;67811;42.656;23.394;2023-12-20T01:47:47;54.97;;;30.63;;
77722;SDS011;67811;42.656;23.394;2023-12-20T01:51:53;42.80;;;23.57;;
77722;SDS011;67811;42.656;23.394;2023-12-20T01:55:59;21.38;;;13.85;;
77722;SDS011;67811;42.656;23.394;2023-12-20T02:00:05;44.08;;;25.52;;
77722;SDS011;67811;42.656;23.394;2023-12-20T02:04:11;51.42;;;26.88;;
77722;SDS011;67811;42.656;23.394;2023-12-20T02:08:17;57.43;;;27.13;;
77722;SDS011;67811;42.656;23.394;2023-12-20T02:12:22;48.40;;;25.97;;
77722;SDS011;67811;42.656;23.394;2023-12-20T02:16:27;53.23;;;24.07;;
77722;SDS011;67811;42.656;23.394;2023-12-20T02:20:32;49.60;;;26.23;;
77722;SDS011;67811;42.656;23.394;2023-12-20T02:24:38;50.87;;;25.90;;
77722;SDS011;67811;42.656;23.394;2023-12-20T02:28:43;48.22;;;25.33;;
77722;SDS011;67811;42.656;23.394;2023-12-20T02:32:49;50.13;;;24.07;;
77722;SDS011;67811;42.656;23.394;2023-12-20T02:36:55;57.35;;;26.20;;
77722;SDS011;67811;42.656;23.394;2023-12-20T02:41:00;50.10;;;23.63;;
77722;SDS011;67811;42.656;23.394;2023-12-20T02:45:06;44.20;;;25.37;;
77722;SDS011;67811;42.656;23.394;2023-12-20T02:49:11;46.03;;;25.23;;
77722;SDS011;67811;42.656;23.394;2023-12-20T02:53:17;43.83;;;26.43;;
77722;SDS011;67811;42.656;23.394;2023-12-20T02:57:22;46.87;;;25.73;;
77722;SDS011;67811;42.656;23.394;2023-12-20T03:01:29;51.10;;;27.23;;
77722;SDS011;67811;42.656;23.394;2023-12-20T03:05:34;51.60;;;26.42;;
77722;SDS011;67811;42.656;23.394;2023-12-20T03:09:40;48.13;;;26.20;;
77722;SDS011;67811;42.656;23.394;2023-12-20T03:13:45;55.17;;;28.83;;
77722;SDS011;67811;42.656;23.394;2023-12-20T03:17:50;55.60;;;28.53;;
77722;SDS011;67811;42.656;23.394;2023-12-20T03:21:56;52.03;;;27.90;;
77722;SDS011;67811;42.656;23.394;2023-12-20T03:26:01;59.30;;;33.27;;
77722;SDS011;67811;42.656;23.394;2023-12-20T03:30:06;53.77;;;29.73;;
77722;SDS011;67811;42.656;23.394;2023-12-20T03:34:12;59.17;;;31.10;;
77722;SDS011;67811;42.656;23.394;2023-12-20T03:38:17;49.47;;;29.27;;
77722;SDS011;67811;42.656;23.394;2023-12-20T03:42:22;53.93;;;27.17;;
77722;SDS011;67811;42.656;23.394;2023-12-20T03:46:28;48.37;;;25.17;;
77722;SDS011;67811;42.656;23.394;2023-12-20T03:50:33;38.50;;;22.50;;
77722;SDS011;67811;42.656;23.394;2023-12-20T03:54:39;45.95;;;24.42;;
77722;SDS011;67811;42.656;23.394;2023-12-20T03:58:45;36.75;;;19.17;;
77722;SDS011;67811;42.656;23.394;2023-12-20T04:02:50;35.60;;;18.67;;
77722;SDS011;67811;42.656;23.394;2023-12-20T04:06:55;43.83;;;25.77;;
77722;SDS011;67811;42.656;23.394;2023-12-20T04:11:01;41.37;;;22.07;;
77722;SDS011;67811;42.656;23.394;2023-12-20T04:15:06;47.63;;;24.57;;
77722;SDS011;67811;42.656;23.394;2023-12-20T04:19:12;38.40;;;20.40;;
77722;SDS011;67811;42.656;23.394;2023-12-20T04:23:17;48.43;;;22.17;;
77722;SDS011;67811;42.656;23.394;2023-12-20T04:27:22;43.03;;;21.37;;
77722;SDS011;67811;42.656;23.394;2023-12-20T04:31:28;37.57;;;17.80;;
77722;SDS011;67811;42.656;23.394;2023-12-20T04:35:33;36.97;;;20.57;;
77722;SDS011;67811;42.656;23.394;2023-12-20T04:39:38;41.53;;;21.03;;
77722;SDS011;67811;42.656;23.394;2023-12-20T04:43:43;34.13;;;18.93;;
77722;SDS011;67811;42.656;23.394;2023-12-20T04:47:49;34.43;;;17.20;;
77722;SDS011;67811;42.656;23.394;2023-12-20T04:51:54;40.87;;;18.57;;
77722;SDS011;67811;42.656;23.394;2023-12-20T04:55:59;27.10;;;16.57;;
77722;SDS011;67811;42.656;23.394;2023-12-20T05:00:05;25.40;;;13.67;;
77722;SDS011;67811;42.656;23.394;2023-12-20T05:04:11;32.28;;;15.68;;
77722;SDS011;67811;42.656;23.394;2023-12-20T05:08:16;27.00;;;12.80;;
77722;SDS011;67811;42.656;23.394;2023-12-20T05:12:21;26.67;;;14.77;;
77722;SDS011;67811;42.656;23.394;2023-12-20T05:16:27;23.63;;;11.37;;
77722;SDS011;67811;42.656;23.394;2023-12-20T05:20:32;31.23;;;16.27;;
77722;SDS011;67811;42.656;23.394;2023-12-20T05:24:37;25.90;;;14.57;;
77722;SDS011;67811;42.656;23.394;2023-12-20T05:28:42;30.13;;;13.63;;
77722;SDS011;67811;42.656;23.394;2023-12-20T05:32:48;25.73;;;12.77;;
77722;SDS011;67811;42.656;23.394;2023-12-20T05:36:53;19.47;;;10.60;;
77722;SDS011;67811;42.656;23.394;2023-12-20T05:40:58;27.07;;;14.20;;
77722;SDS011;67811;42.656;23.394;2023-12-20T05:45:04;14.93;;;10.00;;
77722;SDS011;67811;42.656;23.394;2023-12-20T05:49:10;18.95;;;10.27;;
77722;SDS011;67811;42.656;23.394;2023-12-20T05:53:15;21.97;;;12.40;;
77722;SDS011;67811;42.656;23.394;2023-12-20T05:57:20;21.90;;;11.83;;
77722;SDS011;67811;42.656;23.394;2023-12-20T06:01:25;32.90;;;15.30;;
77722;SDS011;67811;42.656;23.394;2023-12-20T06:05:31;28.13;;;14.80;;
77722;SDS011;67811;42.656;23.394;2023-12-20T06:09:36;21.00;;;12.57;;
77722;SDS011;67811;42.656;23.394;2023-12-20T06:13:41;30.13;;;17.60;;
77722;SDS011;67811;42.656;23.394;2023-12-20T06:17:47;33.00;;;16.43;;
77722;SDS011;67811;42.656;23.394;2023-12-20T06:21:52;27.73;;;15.17;;
77722;SDS011;67811;42.656;23.394;2023-12-20T06:25:57;31.67;;;16.67;;
77722;SDS011;67811;42.656;23.394;2023-12-20T06:30:02;30.43;;;14.87;;
77722;SDS011;67811;42.656;23.394;2023-12-20T06:34:08;36.50;;;16.58;;
77722;SDS011;67811;42.656;23.394;2023-12-20T06:38:13;32.63;;;15.43;;
77722;SDS011;67811;42.656;23.394;2023-12-20T06:42:19;33.57;;;18.20;;
77722;SDS011;67811;42.656;23.394;2023-12-20T06:46:24;32.80;;;17.77;;
77722;SDS011;67811;42.656;23.394;2023-12-20T06:50:29;40.53;;;16.17;;
77722;SDS011;67811;42.656;23.394;2023-12-20T06:54:35;33.93;;;16.37;;
77722;SDS011;67811;42.656;23.394;2023-12-20T06:58:40;34.90;;;17.83;;
77722;SDS011;67811;42.656;23.394;2023-12-20T07:02:45;30.60;;;15.53;;
77722;SDS011;67811;42.656;23.394;2023-12-20T07:06:51;37.17;;;18.07;;
77722;SDS011;67811;42.656;23.394;2023-12-20T07:10:56;32.97;;;16.73;;
77722;SDS011;67811;42.656;23.394;2023-12-20T07:15:01;33.87;;;17.80;;
77722;SDS011;67811;42.656;23.394;2023-12-20T07:19:07;38.60;;;17.67;;
77722;SDS011;67811;42.656;23.394;2023-12-20T07:23:12;28.63;;;16.40;;
77722;SDS011;67811;42.656;23.394;2023-12-20T07:27:17;39.30;;;18.10;;
77722;SDS011;67811;42.656;23.394;2023-12-20T07:31:23;33.03;;;17.40;;
77722;SDS011;67811;42.656;23.394;2023-12-20T07:35:28;39.60;;;18.07;;
77722;SDS011;67811;42.656;23.394;2023-12-20T07:39:33;40.50;;;20.27;;
77722;SDS011;67811;42.656;23.394;2023-12-20T07:43:39;41.50;;;19.37;;
77722;SDS011;67811;42.656;23.394;2023-12-20T07:47:44;47.70;;;21.80;;
77722;SDS011;67811;42.656;23.394;2023-12-20T07:51:49;46.27;;;19.47;;
77722;SDS011;67811;42.656;23.394;2023-12-20T07:55:55;38.63;;;18.85;;
77722;SDS011;67811;42.656;23.394;2023-12-20T08:00:00;48.17;;;21.40;;
77722;SDS011;67811;42.656;23.394;2023-12-20T08:04:05;45.37;;;23.20;;
77722;SDS011;67811;42.656;23.394;2023-12-20T08:08:11;38.83;;;18.93;;
77722;SDS011;67811;42.656;23.394;2023-12-20T08:12:16;54.83;;;20.47;;
77722;SDS011;67811;42.656;23.394;2023-12-20T08:16:21;51.70;;;19.90;;
77722;SDS011;67811;42.656;23.394;2023-12-20T08:20:26;42.20;;;19.20;;
77722;SDS011;67811;42.656;23.394;2023-12-20T08:24:32;38.07;;;18.00;;
77722;SDS011;67811;42.656;23.394;2023-12-20T08:28:37;37.30;;;17.57;;
77722;SDS011;67811;42.656;23.394;2023-12-20T08:32:42;39.90;;;19.23;;
77722;SDS011;67811;42.656;23.394;2023-12-20T08:36:47;44.23;;;18.00;;
77722;SDS011;67811;42.656;23.394;2023-12-20T08:40:53;38.87;;;18.63;;
77722;SDS011;67811;42.656;23.394;2023-12-20T08:44:59;36.47;;;14.73;;
77722;SDS011;67811;42.656;23.394;2023-12-20T08:49:05;37.13;;;18.13;;
77722;SDS011;67811;42.656;23.394;2023-12-20T08:53:10;43.17;;;19.60;;
77722;SDS011;67811;42.656;23.394;2023-12-20T08:57:15;50.53;;;21.63;;
77722;SDS011;67811;42.656;23.394;2023-12-20T09:01:20;47.00;;;20.80;;
77722;SDS011;67811;42.656;23.394;2023-12-20T09:05:26;58.17;;;22.93;;
77722;SDS011;67811;42.656;23.394;2023-12-20T09:09:31;47.73;;;21.83;;
77722;SDS011;67811;42.656;23.394;2023-12-20T09:13:36;51.43;;;25.20;;
77722;SDS011;67811;42.656;23.394;2023-12-20T09:17:42;53.70;;;24.37;;
77722;SDS011;67811;42.656;23.394;2023-12-20T09:21:47;45.23;;;20.60;;
77722;SDS011;67811;42.656;23.394;2023-12-20T09:25:52;58.13;;;27.23;;
77722;SDS011;67811;42.656;23.394;2023-12-20T09:29:58;56.42;;;25.42;;
77722;SDS011;67811;42.656;23.394;2023-12-20T09:34:03;45.03;;;20.23;;
77722;SDS011;67811;42.656;23.394;2023-12-20T09:38:08;39.60;;;18.47;;
77722;SDS011;67811;42.656;23.394;2023-12-20T09:42:15;36.90;;;18.27;;
77722;SDS011;67811;42.656;23.394;2023-12-20T09:46:26;39.67;;;19.98;;
77722;SDS011;67811;42.656;23.394;2023-12-20T09:50:33;44.38;;;18.63;;
77722;SDS011;67811;42.656;23.394;2023-12-20T09:54:39;41.77;;;19.70;;
77722;SDS011;67811;42.656;23.394;2023-12-20T09:58:44;44.63;;;20.77;;
77722;SDS011;67811;42.656;23.394;2023-12-20T10:02:50;40.60;;;20.77;;
77722;SDS011;67811;42.656;23.394;2023-12-20T10:07:03;42.60;;;19.95;;
77722;SDS011;67811;42.656;23.394;2023-12-20T10:11:09;43.58;;;17.20;;
77722;SDS011;67811;42.656;23.394;2023-12-20T10:15:14;34.67;;;18.37;;
77722;SDS011;67811;42.656;23.394;2023-12-20T10:19:20;42.80;;;20.03;;
77722;SDS011;67811;42.656;23.394;2023-12-20T10:23:25;39.93;;;22.47;;
77722;SDS011;67811;42.656;23.394;2023-12-20T10:27:30;36.40;;;15.10;;
77722;SDS011;67811;42.656;23.394;2023-12-20T10:31:36;46.90;;;23.10;;
77722;SDS011;67811;42.656;23.394;2023-12-20T10:35:41;43.47;;;20.90;;
77722;SDS011;67811;42.656;23.394;2023-12-20T10:39:50;48.33;;;22.43;;
77722;SDS011;67811;42.656;23.394;2023-12-20T10:44:01;50.45;;;19.35;;
77722;SDS011;67811;42.656;23.394;2023-12-20T10:48:07;43.15;;;21.23;;
77722;SDS011;67811;42.656;23.394;2023-12-20T10:52:18;48.35;;;24.27;;
77722;SDS011;67811;42.656;23.394;2023-12-20T10:56:23;45.63;;;22.40;;
77722;SDS011;67811;42.656;23.394;2023-12-20T11:00:29;44.30;;;19.43;;
77722;SDS011;67811;42.656;23.394;2023-12-20T11:05:19;32.72;;;17.83;;
77722;SDS011;67811;42.656;23.394;2023-12-20T11:09:17;50.72;;;20.42;;
77722;SDS011;67811;42.656;23.394;2023-12-20T11:13:34;49.78;;;22.85;;
77722;SDS011;67811;42.656;23.394;2023-12-20T11:17:45;43.20;;;20.35;;
77722;SDS011;67811;42.656;23.394;2023-12-20T11:21:50;42.85;;;19.08;;
77722;SDS011;67811;42.656;23.394;2023-12-20T11:25:56;37.03;;;17.70;;
77722;SDS011;67811;42.656;23.394;2023-12-20T11:30:05;40.97;;;20.27;;
77722;SDS011;67811;42.656;23.394;2023-12-20T11:34:13;42.22;;;18.52;;
77722;SDS011;67811;42.656;23.394;2023-12-20T11:38:22;43.10;;;22.02;;
77722;SDS011;67811;42.656;23.394;2023-12-20T11:42:27;35.33;;;16.13;;
77722;SDS011;67811;42.656;23.394;2023-12-20T11:46:33;37.10;;;18.37;;
77722;SDS011;67811;42.656;23.394;2023-12-20T11:50:38;38.53;;;19.00;;
77722;SDS011;67811;42.656;23.394;2023-12-20T11:54:44;43.63;;;19.73;;
77722;SDS011;67811;42.656;23.394;2023-12-20T11:58:49;45.67;;;21.03;;
77722;SDS011;67811;42.656;23.394;2023-12-20T12:02:58;55.07;;;23.27;;
77722;SDS011;67811;42.656;23.394;2023-12-20T12:07:04;60.13;;;25.77;;
77722;SDS011;67811;42.656;23.394;2023-12-20T12:11:09;49.43;;;20.97;;
77722;SDS011;67811;42.656;23.394;2023-12-20T12:15:14;48.53;;;21.70;;
77722;SDS011;67811;42.656;23.394;2023-12-20T12:19:23;44.35;;;19.75;;
77722;SDS011;67811;42.656;23.394;2023-12-20T12:23:29;54.00;;;24.73;;
77722;SDS011;67811;42.656;23.394;2023-12-20T12:27:34;43.60;;;18.57;;
77722;SDS011;67811;42.656;23.394;2023-12-20T12:31:40;37.03;;;19.33;;
77722;SDS011;67811;42.656;23.394;2023-12-20T12:35:45;37.43;;;17.63;;
77722;SDS011;67811;42.656;23.394;2023-12-20T12:39:53;35.93;;;17.27;;
77722;SDS011;67811;42.656;23.394;2023-12-20T12:48:04;34.05;;;17.58;;
77722;SDS011;67811;42.656;23.394;2023-12-20T12:52:10;36.75;;;20.05;;
77722;SDS011;67811;42.656;23.394;2023-12-20T12:56:15;44.97;;;21.80;;
77722;SDS011;67811;42.656;23.394;2023-12-20T13:00:21;50.28;;;23.20;;
77722;SDS011;67811;42.656;23.394;2023-12-20T13:04:26;45.70;;;20.00;;
77722;SDS011;67811;42.656;23.394;2023-12-20T13:08:32;44.27;;;19.33;;
77722;SDS011;67811;42.656;23.394;2023-12-20T13:12:37;56.20;;;24.97;;
77722;SDS011;67811;42.656;23.394;2023-12-20T13:16:42;44.33;;;20.77;;
77722;SDS011;67811;42.656;23.394;2023-12-20T13:20:47;48.67;;;21.13;;
77722;SDS011;67811;42.656;23.394;2023-12-20T13:24:53;45.57;;;22.27;;
77722;SDS011;67811;42.656;23.394;2023-12-20T13:28:58;52.67;;;20.97;;
77722;SDS011;67811;42.656;23.394;2023-12-20T13:33:04;42.70;;;18.47;;
77722;SDS011;67811;42.656;23.394;2023-12-20T13:37:09;47.30;;;20.90;;
77722;SDS011;67811;42.656;23.394;2023-12-20T13:41:15;43.27;;;18.33;;
77722;SDS011;67811;42.656;23.394;2023-12-20T13:45:20;33.37;;;16.57;;
77722;SDS011;67811;42.656;23.394;2023-12-20T13:49:25;25.70;;;13.07;;
77722;SDS011;67811;42.656;23.394;2023-12-20T13:53:31;40.30;;;16.47;;
77722;SDS011;67811;42.656;23.394;2023-12-20T13:57:36;43.28;;;18.25;;
77722;SDS011;67811;42.656;23.394;2023-12-20T14:01:42;40.43;;;17.83;;
77722;SDS011;67811;42.656;23.394;2023-12-20T14:05:47;41.33;;;19.03;;
77722;SDS011;67811;42.656;23.394;2023-12-20T14:09:52;41.87;;;18.20;;
77722;SDS011;67811;42.656;23.394;2023-12-20T14:13:57;52.77;;;22.60;;
77722;SDS011;67811;42.656;23.394;2023-12-20T14:18:06;48.13;;;21.10;;
77722;SDS011;67811;42.656;23.394;2023-12-20T14:22:11;54.83;;;22.40;;
77722;SDS011;67811;42.656;23.394;2023-12-20T14:26:17;49.53;;;21.87;;
77722;SDS011;67811;42.656;23.394;2023-12-20T14:30:22;55.33;;;23.08;;
77722;SDS011;67811;42.656;23.394;2023-12-20T14:34:28;50.17;;;23.43;;
77722;SDS011;67811;42.656;23.394;2023-12-20T14:38:34;49.45;;;22.15;;
77722;SDS011;67811;42.656;23.394;2023-12-20T14:42:39;57.83;;;23.87;;
77722;SDS011;67811;42.656;23.394;2023-12-20T14:46:45;55.73;;;22.37;;
77722;SDS011;67811;42.656;23.394;2023-12-20T14:50:50;50.50;;;22.50;;
77722;SDS011;67811;42.656;23.394;2023-12-20T14:54:55;53.70;;;22.90;;
77722;SDS011;67811;42.656;23.394;2023-12-20T14:59:01;56.80;;;22.77;;
77722;SDS011;67811;42.656;23.394;2023-12-20T15:03:06;47.67;;;20.50;;
77722;SDS011;67811;42.656;23.394;2023-12-20T15:07:11;47.37;;;22.57;;
77722;SDS011;67811;42.656;23.394;2023-12-20T15:11:16;53.47;;;20.50;;
77722;SDS011;67811;42.656;23.394;2023-12-20T15:15:22;55.63;;;20.00;;
77722;SDS011;67811;42.656;23.394;2023-12-20T15:19:27;59.97;;;26.63;;
77722;SDS011;67811;42.656;23.394;2023-12-20T15:23:32;53.30;;;24.97;;
77722;SDS011;67811;42.656;23.394;2023-12-20T15:27:38;43.33;;;21.70;;
77722;SDS011;67811;42.656;23.394;2023-12-20T15:31:44;52.77;;;22.67;;
77722;SDS011;67811;42.656;23.394;2023-12-20T15:35:52;45.83;;;18.80;;
77722;SDS011;67811;42.656;23.394;2023-12-20T15:39:57;50.57;;;20.30;;
77722;SDS011;67811;42.656;23.394;2023-12-20T15:44:02;53.07;;;23.27;;
77722;SDS011;67811;42.656;23.394;2023-12-20T15:48:08;46.73;;;21.50;;
77722;SDS011;67811;42.656;23.394;2023-12-20T15:52:13;51.43;;;22.07;;
77722;SDS011;67811;42.656;23.394;2023-12-20T15:56:18;56.40;;;24.77;;
77722;SDS011;67811;42.656;23.394;2023-12-20T16:00:24;49.87;;;22.37;;
77722;SDS011;67811;42.656;23.394;2023-12-20T16:04:29;54.73;;;27.63;;
77722;SDS011;67811;42.656;23.394;2023-12-20T16:08:34;19.23;;;9.93;;
77722;SDS011;67811;42.656;23.394;2023-12-20T16:12:39;36.53;;;17.90;;
77722;SDS011;67811;42.656;23.394;2023-12-20T16:16:45;55.47;;;24.83;;
77722;SDS011;67811;42.656;23.394;2023-12-20T16:20:51;34.15;;;17.40;;
77722;SDS011;67811;42.656;23.394;2023-12-20T16:24:56;53.63;;;22.13;;
77722;SDS011;67811;42.656;23.394;2023-12-20T16:29:02;58.40;;;25.37;;
77722;SDS011;67811;42.656;23.394;2023-12-20T16:33:07;53.50;;;24.37;;
77722;SDS011;67811;42.656;23.394;2023-12-20T16:37:12;54.50;;;24.43;;
77722;SDS011;67811;42.656;23.394;2023-12-20T16:41:17;10.90;;;6.13;;
77722;SDS011;67811;42.656;23.394;2023-12-20T16:45:23;61.43;;;28.40;;
77722;SDS011;67811;42.656;23.394;2023-12-20T16:49:28;51.17;;;23.95;;
77722;SDS011;67811;42.656;23.394;2023-12-20T16:53:34;59.50;;;24.13;;
77722;SDS011;67811;42.656;23.394;2023-12-20T16:57:39;54.17;;;22.73;;
77722;SDS011;67811;42.656;23.394;2023-12-20T17:01:44;60.57;;;25.63;;
77722;SDS011;67811;42.656;23.394;2023-12-20T17:05:50;64.63;;;27.70;;
77722;SDS011;67811;42.656;23.394;2023-12-20T17:09:55;65.50;;;27.80;;
77722;SDS011;67811;42.656;23.394;2023-12-20T17:14:00;55.67;;;25.03;;
77722;SDS011;67811;42.656;23.394;2023-12-20T17:18:05;62.43;;;27.37;;
77722;SDS011;67811;42.656;23.394;2023-12-20T17:22:11;61.63;;;24.07;;
77722;SDS011;67811;42.656;23.394;2023-12-20T17:26:16;61.27;;;27.63;;
77722;SDS011;67811;42.656;23.394;2023-12-20T17:30:21;51.80;;;22.63;;
77722;SDS011;67811;42.656;23.394;2023-12-20T17:34:27;51.07;;;23.43;;
77722;SDS011;67811;42.656;23.394;2023-12-20T17:38:32;52.87;;;26.37;;
77722;SDS011;67811;42.656;23.394;2023-12-20T17:42:37;57.40;;;27.00;;
77722;SDS011;67811;42.656;23.394;2023-12-20T17:46:43;56.23;;;22.80;;
77722;SDS011;67811;42.656;23.394;2023-12-20T17:50:48;44.87;;;20.47;;
77722;SDS011;67811;42.656;23.394;2023-12-20T17:54:53;46.40;;;21.27;;
77722;SDS011;67811;42.656;23.394;2023-12-20T17:58:59;57.43;;;23.37;;
77722;SDS011;67811;42.656;23.394;2023-12-20T18:03:04;51.03;;;24.90;;
77722;SDS011;67811;42.656;23.394;2023-12-20T18:07:10;48.42;;;21.45;;
77722;SDS011;67811;42.656;23.394;2023-12-20T18:11:15;54.70;;;25.58;;
77722;SDS011;67811;42.656;23.394;2023-12-20T18:15:21;57.13;;;26.07;;
77722;SDS011;67811;42.656;23.394;2023-12-20T18:19:26;48.37;;;24.90;;
77722;SDS011;67811;42.656;23.394;2023-12-20T18:23:31;52.23;;;22.97;;
77722;SDS011;67811;42.656;23.394;2023-12-20T18:27:37;40.27;;;21.53;;
77722;SDS011;67811;42.656;23.394;2023-12-20T18:31:42;14.63;;;8.43;;
77722;SDS011;67811;42.656;23.394;2023-12-20T18:35:47;17.23;;;9.67;;
77722;SDS011;67811;42.656;23.394;2023-12-20T18:39:52;37.50;;;17.27;;
77722;SDS011;67811;42.656;23.394;2023-12-20T18:43:58;34.43;;;18.50;;
77722;SDS011;67811;42.656;23.394;2023-12-20T18:48:03;60.17;;;26.07;;
77722;SDS011;67811;42.656;23.394;2023-12-20T18:52:09;56.75;;;24.38;;
77722;SDS011;67811;42.656;23.394;2023-12-20T18:56:14;48.80;;;22.23;;
77722;SDS011;67811;42.656;23.394;2023-12-20T19:00:19;36.60;;;22.43;;
77722;SDS011;67811;42.656;23.394;2023-12-20T19:04:25;47.40;;;25.23;;
77722;SDS011;67811;42.656;23.394;2023-12-20T19:08:30;31.33;;;19.63;;
77722;SDS011;67811;42.656;23.394;2023-12-20T19:12:35;39.43;;;21.00;;
77722;SDS011;67811;42.656;23.394;2023-12-20T19:16:41;35.10;;;21.17;;
77722;SDS011;67811;42.656;23.394;2023-12-20T19:20:46;22.00;;;13.70;;
77722;SDS011;67811;42.656;23.394;2023-12-20T19:24:51;57.07;;;25.57;;
77722;SDS011;67811;42.656;23.394;2023-12-20T19:28:57;50.33;;;24.27;;
77722;SDS011;67811;42.656;23.394;2023-12-20T19:33:02;18.27;;;11.53;;
77722;SDS011;67811;42.656;23.394;2023-12-20T19:37:08;48.60;;;23.70;;
77722;SDS011;67811;42.656;23.394;2023-12-20T19:41:13;55.30;;;29.83;;
77722;SDS011;67811;42.656;23.394;2023-12-20T19:45:18;51.63;;;26.30;;
77722;SDS011;67811;42.656;23.394;2023-12-20T19:49:24;58.67;;;28.03;;
77722;SDS011;67811;42.656;23.394;2023-12-20T19:53:29;47.37;;;22.50;;
77722;SDS011;67811;42.656;23.394;2023-12-20T19:57:34;63.50;;;29.53;;
77722;SDS011;67811;42.656;23.394;2023-12-20T20:01:40;50.90;;;25.58;;
77722;SDS011;67811;42.656;23.394;2023-12-20T20:05:45;60.30;;;24.00;;
77722;SDS011;67811;42.656;23.394;2023-12-20T20:09:50;56.93;;;27.70;;
77722;SDS011;67811;42.656;23.394;2023-12-20T20:13:56;62.60;;;26.53;;
77722;SDS011;67811;42.656;23.394;2023-12-20T20:18:01;60.63;;;26.07;;
77722;SDS011;67811;42.656;23.394;2023-12-20T20:22:06;52.90;;;23.40;;
77722;SDS011;67811;42.656;23.394;2023-12-20T20:26:11;51.07;;;24.20;;
77722;SDS011;67811;42.656;23.394;2023-12-20T20:30:17;51.05;;;23.67;;
77722;SDS011;67811;42.656;23.394;2023-12-20T20:34:22;55.90;;;26.77;;
77722;SDS011;67811;42.656;23.394;2023-12-20T20:38:28;41.63;;;19.03;;
77722;SDS011;67811;42.656;23.394;2023-12-20T20:42:33;54.43;;;24.57;;
77722;SDS011;67811;42.656;23.394;2023-12-20T20:46:38;51.23;;;24.23;;
77722;SDS011;67811;42.656;23.394;2023-12-20T20:50:44;54.93;;;24.50;;
77722;SDS011;67811;42.656;23.394;2023-12-20T20:54:49;60.87;;;27.73;;
77722;SDS011;67811;42.656;23.394;2023-12-20T20:58:54;55.17;;;24.77;;
77722;SDS011;67811;42.656;23.394;2023-12-20T21:02:59;47.23;;;23.07;;
77722;SDS011;67811;42.656;23.394;2023-12-20T21:07:05;53.87;;;23.47;;
77722;SDS011;67811;42.656;23.394;2023-12-20T21:11:10;44.97;;;23.27;;
77722;SDS011;67811;42.656;23.394;2023-12-20T21:15:15;50.13;;;23.57;;
77722;SDS011;67811;42.656;23.394;2023-12-20T21:19:20;44.83;;;20.67;;
77722;SDS011;67811;42.656;23.394;2023-12-20T21:23:26;42.00;;;21.63;;
77722;SDS011;67811;42.656;23.394;2023-12-20T21:27:31;49.17;;;24.60;;
77722;SDS011;67811;42.656;23.394;2023-12-20T21:31:36;53.43;;;25.07;;
77722;SDS011;67811;42.656;23.394;2023-12-20T21:35:42;67.57;;;30.57;;
77722;SDS011;67811;42.656;23.394;2023-12-20T21:39:47;55.17;;;27.63;;
77722;SDS011;67811;42.656;23.394;2023-12-20T21:43:52;59.27;;;27.43;;
77722;SDS011;67811;42.656;23.394;2023-12-20T21:47:57;34.70;;;20.57;;
77722;SDS011;67811;42.656;23.394;2023-12-20T21:52:03;40.47;;;21.67;;
77722;SDS011;67811;42.656;23.394;2023-12-20T21:56:09;51.45;;;24.67;;
77722;SDS011;67811;42.656;23.394;2023-12-20T22:00:14;65.17;;;25.67;;
77722;SDS011;67811;42.656;23.394;2023-12-20T22:04:19;55.78;;;25.15;;
77722;SDS011;67811;42.656;23.394;2023-12-20T22:08:25;56.30;;;25.60;;
77722;SDS011;67811;42.656;23.394;2023-12-20T22:12:30;61.43;;;28.77;;
77722;SDS011;67811;42.656;23.394;2023-12-20T22:16:35;64.57;;;28.13;;
77722;SDS011;67811;42.656;23.394;2023-12-20T22:20:41;48.50;;;23.70;;
77722;SDS011;67811;42.656;23.394;2023-12-20T22:24:46;58.60;;;25.43;;
77722;SDS011;67811;42.656;23.394;2023-12-20T22:28:51;58.27;;;26.83;;
77722;SDS011;67811;42.656;23.394;2023-12-20T22:32:56;62.10;;;28.83;;
77722;SDS011;67811;42.656;23.394;2023-12-20T22:37:02;61.70;;;27.83;;
77722;SDS011;67811;42.656;23.394;2023-12-20T22:41:07;59.67;;;27.60;;
77722;SDS011;67811;42.656;23.394;2023-12-20T22:45:12;68.63;;;31.20;;
77722;SDS011;67811;42.656;23.394;2023-12-20T22:49:18;73.07;;;33.10;;
77722;SDS011;67811;42.656;23.394;2023-12-20T22:53:23;73.88;;;32.90;;
77722;SDS011;67811;42.656;23.394;2023-12-20T22:57:29;63.43;;;30.33;;
77722;SDS011;67811;42.656;23.394;2023-12-20T23:01:35;71.13;;;31.50;;
77722;SDS011;67811;42.656;23.394;2023-12-20T23:05:40;81.17;;;35.27;;
77722;SDS011;67811;42.656;23.394;2023-12-20T23:09:45;57.17;;;27.27;;
77722;SDS011;67811;42.656;23.394;2023-12-20T23:13:51;60.07;;;29.77;;
77722;SDS011;67811;42.656;23.394;2023-12-20T23:17:56;50.90;;;27.17;;
77722;SDS011;67811;42.656;23.394;2023-12-20T23:22:01;62.20;;;33.30;;
77722;SDS011;67811;42.656;23.394;2023-12-20T23:26:07;60.90;;;29.20;;
77722;SDS011;67811;42.656;23.394;2023-12-20T23:30:12;46.03;;;24.30;;
77722;SDS011;67811;42.656;23.394;2023-12-20T23:34:17;41.90;;;24.90;;
77722;SDS011;67811;42.656;23.394;2023-12-20T23:38:23;61.90;;;32.07;;